createdAt,value
2024-05-09T00:00:29.760Z,2.55
2024-05-09T00:03:21.005Z,2.28
2024-05-09T00:06:12.168Z,1.80
2024-05-09T00:09:01.418Z,2.03
2024-05-09T00:11:50.518Z,2.30
2024-05-09T00:14:42.020Z,2.33
2024-05-09T00:17:31.427Z,2.58
2024-05-09T00:20:27.851Z,2.05
2024-05-09T00:23:22.416Z,2.78
2024-05-09T00:26:11.745Z,2.13
2024-05-09T00:29:00.848Z,2.60
2024-05-09T00:31:52.357Z,2.13
2024-05-09T00:34:41.291Z,1.83
2024-05-09T00:37:30.267Z,1.85
2024-05-09T00:40:30.707Z,2.40
2024-05-09T00:43:27.101Z,2.40
2024-05-09T00:46:17.207Z,2.03
2024-05-09T00:49:09.445Z,2.25
2024-05-09T00:52:00.364Z,1.83
2024-05-09T00:54:49.592Z,2.20
2024-05-09T00:57:39.646Z,1.77
2024-05-09T01:00:35.974Z,2.25
2024-05-09T01:03:28.888Z,1.60
2024-05-09T01:06:23.243Z,2.03
2024-05-09T01:09:12.413Z,2.47
2024-05-09T01:12:01.498Z,1.52
2024-05-09T01:14:50.829Z,2.65
2024-05-09T01:17:40.154Z,1.63
2024-05-09T01:20:39.185Z,2.50
2024-05-09T01:23:33.987Z,2.40
2024-05-09T01:26:22.892Z,2.13
2024-05-09T01:29:12.021Z,2.42
2024-05-09T01:32:04.542Z,2.05
2024-05-09T01:34:53.473Z,1.88
2024-05-09T01:37:42.743Z,2.60
2024-05-09T01:40:38.562Z,2.00
2024-05-09T01:43:29.280Z,2.33
2024-05-09T01:46:19.488Z,2.20
2024-05-09T01:49:08.620Z,2.95
2024-05-09T01:51:57.403Z,1.73
2024-05-09T01:54:46.543Z,2.15
2024-05-09T01:57:38.040Z,1.88
2024-05-09T02:00:37.976Z,2.20
2024-05-09T02:03:30.262Z,2.03
2024-05-09T02:06:19.238Z,1.75
2024-05-09T02:09:08.253Z,2.35
2024-05-09T02:11:57.430Z,1.35
2024-05-09T02:14:49.093Z,2.15
2024-05-09T02:17:38.470Z,2.28
2024-05-09T02:20:34.084Z,1.58
2024-05-09T02:23:25.812Z,2.33
2024-05-09T02:26:15.114Z,1.73
2024-05-09T02:29:04.454Z,2.08
2024-05-09T02:31:56.217Z,2.53
2024-05-09T02:34:45.436Z,1.65
2024-05-09T02:37:35.177Z,2.40
2024-05-09T02:40:28.941Z,1.60
2024-05-09T02:43:25.495Z,2.15
2024-05-09T02:46:11.831Z,1.55
2024-05-09T02:51:50.024Z,2.15
2024-05-09T02:54:39.169Z,1.85
2024-05-09T02:57:25.770Z,2.30
2024-05-09T03:00:19.000Z,2.55
2024-05-09T03:03:14.734Z,1.95
2024-05-09T03:06:05.604Z,1.60
2024-05-09T03:08:54.925Z,1.88
2024-05-09T03:11:44.059Z,1.70
2024-05-09T03:14:31.057Z,2.20
2024-05-09T03:17:20.683Z,1.70
2024-05-09T03:20:14.628Z,2.17
2024-05-09T03:23:10.448Z,2.00
2024-05-09T03:25:59.845Z,2.28
2024-05-09T03:28:48.958Z,2.47
2024-05-09T03:31:35.579Z,1.77
2024-05-09T03:34:24.774Z,2.00
2024-05-09T03:37:14.126Z,1.38
2024-05-09T03:40:03.076Z,2.58
2024-05-09T03:42:54.668Z,1.50
2024-05-09T03:45:43.998Z,1.20
2024-05-09T03:48:30.298Z,2.00
2024-05-09T03:51:19.363Z,1.80
2024-05-09T03:54:05.709Z,1.88
2024-05-09T03:56:55.809Z,2.25
2024-05-09T03:59:44.942Z,2.50
2024-05-09T04:02:34.115Z,2.25
2024-05-09T04:05:20.507Z,2.25
2024-05-09T04:08:10.074Z,2.85
2024-05-09T04:10:56.818Z,2.40
2024-05-09T04:13:45.983Z,2.53
2024-05-09T04:16:37.565Z,2.67
2024-05-09T04:19:24.338Z,2.45
2024-05-09T04:22:13.049Z,3.03
2024-05-09T04:24:59.641Z,2.53
2024-05-09T04:27:48.953Z,3.15
2024-05-09T04:30:39.235Z,3.20
2024-05-09T04:33:33.120Z,3.05
2024-05-09T04:36:19.308Z,2.53
2024-05-09T04:41:54.260Z,2.72
2024-05-09T04:44:43.484Z,2.97
2024-05-09T04:47:30.005Z,3.47
2024-05-09T04:50:29.980Z,3.45
2024-05-09T04:53:22.787Z,3.97
2024-05-09T04:58:58.043Z,2.35
2024-05-09T05:01:47.120Z,4.32
2024-05-09T05:04:33.634Z,3.35
2024-05-09T05:07:25.250Z,3.78
2024-05-09T05:10:17.906Z,4.25
2024-05-09T05:13:24.894Z,3.33
2024-05-09T05:16:11.736Z,3.13
2024-05-09T05:19:00.907Z,3.45
2024-05-09T05:21:48.143Z,3.70
2024-05-09T05:24:39.948Z,3.45
2024-05-09T05:27:30.951Z,3.05
2024-05-09T05:30:21.510Z,3.45
2024-05-09T05:33:20.019Z,3.75
2024-05-09T05:36:07.712Z,3.47
2024-05-09T05:38:56.627Z,3.38
2024-05-09T05:41:45.721Z,2.63
2024-05-09T05:44:35.056Z,3.35
2024-05-09T05:47:21.583Z,2.60
2024-05-09T05:53:16.639Z,3.00
2024-05-09T05:56:03.091Z,3.90
2024-05-09T05:58:54.699Z,3.85
2024-05-09T06:01:41.234Z,2.70
2024-05-09T06:07:16.367Z,2.47
2024-05-09T06:10:09.306Z,2.90
2024-05-09T06:13:00.723Z,2.50
2024-05-09T06:15:52.354Z,3.47
2024-05-09T06:18:38.872Z,3.28
2024-05-09T06:21:28.211Z,2.28
2024-05-09T06:24:14.713Z,2.30
2024-05-09T06:27:04.125Z,2.97
2024-05-09T06:29:50.428Z,3.40
2024-05-09T06:35:28.821Z,2.95
2024-05-09T06:38:18.479Z,2.22
2024-05-09T06:41:06.194Z,2.33
2024-05-09T06:43:55.476Z,2.85
2024-05-09T06:46:42.381Z,3.33
2024-05-09T06:49:32.859Z,3.08
2024-05-09T06:52:22.093Z,3.58
2024-05-09T06:55:11.188Z,2.47
2024-05-09T06:57:57.603Z,2.53
2024-05-09T07:03:32.921Z,4.00
2024-05-09T07:06:23.787Z,2.22
2024-05-09T07:09:12.928Z,4.75
2024-05-09T07:12:01.822Z,4.05
2024-05-09T07:14:48.241Z,3.28
2024-05-09T07:17:37.505Z,3.75
2024-05-09T07:20:32.324Z,3.28
2024-05-09T07:23:24.493Z,2.35
2024-05-09T07:26:13.785Z,2.17
2024-05-09T07:29:03.361Z,2.65
2024-05-09T07:31:50.255Z,2.60
2024-05-09T07:34:39.263Z,1.98
2024-05-09T07:37:25.598Z,2.33
2024-05-09T07:40:24.517Z,2.30
2024-05-09T07:43:20.936Z,2.17
2024-05-09T07:47:13.908Z,2.45
2024-05-09T07:50:55.983Z,2.10
2024-05-09T07:55:18.940Z,1.92
2024-05-09T07:58:08.719Z,2.00
2024-05-09T08:00:57.812Z,1.80
2024-05-09T08:03:47.050Z,2.00
2024-05-09T08:06:33.645Z,2.30
2024-05-09T08:09:22.859Z,2.03
2024-05-09T08:12:09.487Z,1.80
2024-05-09T08:14:59.602Z,2.40
2024-05-09T08:17:49.422Z,1.90
2024-05-09T08:20:40.204Z,2.53
2024-05-09T08:23:29.457Z,2.67
2024-05-09T08:26:16.141Z,2.55
2024-05-09T08:31:55.804Z,2.20
2024-05-09T08:34:47.545Z,2.13
2024-05-09T08:37:38.698Z,2.22
2024-05-09T08:40:34.597Z,2.25
2024-05-09T08:43:24.976Z,2.50
2024-05-09T08:46:15.766Z,2.53
2024-05-09T08:49:04.038Z,2.65
2024-05-09T08:51:56.115Z,2.70
2024-05-09T08:54:42.625Z,2.90
2024-05-09T08:57:33.840Z,2.60
2024-05-09T09:00:29.204Z,2.40
2024-05-09T09:03:27.951Z,2.45
2024-05-09T09:06:18.276Z,3.08
2024-05-09T09:09:10.334Z,2.72
2024-05-09T09:11:57.039Z,2.28
2024-05-09T09:14:48.610Z,2.70
2024-05-09T09:17:37.766Z,2.33
2024-05-09T09:20:33.371Z,2.22
2024-05-09T09:23:27.386Z,2.50
2024-05-09T09:26:19.464Z,2.55
2024-05-09T09:29:08.538Z,2.85
2024-05-09T09:31:59.079Z,2.20
2024-05-09T09:34:48.243Z,2.67
2024-05-09T09:37:35.853Z,2.58
2024-05-09T09:40:31.675Z,2.15
2024-05-09T09:43:23.051Z,2.65
2024-05-09T09:46:13.180Z,2.45
2024-05-09T09:49:00.122Z,2.58
2024-05-09T09:51:50.121Z,2.80
2024-05-09T09:54:36.686Z,2.53
2024-05-09T09:57:27.618Z,2.40
2024-05-09T10:00:23.661Z,2.78
2024-05-09T10:03:16.176Z,2.45
2024-05-09T10:06:03.771Z,2.20
2024-05-09T10:08:53.353Z,2.85
2024-05-09T10:11:45.295Z,2.80
2024-05-09T10:14:43.590Z,2.10
2024-05-09T10:17:32.937Z,2.20
2024-05-09T10:20:28.032Z,2.60
2024-05-09T10:23:25.698Z,1.67
2024-05-09T10:26:15.123Z,2.10
2024-05-09T10:29:03.431Z,2.28
2024-05-09T10:31:53.024Z,2.42
2024-05-09T10:34:47.187Z,2.17
2024-05-09T10:37:33.917Z,2.00
2024-05-09T10:40:28.776Z,2.22
2024-05-09T10:43:20.431Z,1.67
2024-05-09T10:46:10.587Z,1.88
2024-05-09T10:49:05.159Z,1.85
2024-05-09T10:51:59.033Z,2.15
2024-05-09T10:54:45.521Z,2.05
2024-05-09T10:57:43.320Z,2.20
2024-05-09T11:00:36.369Z,2.28
2024-05-09T11:03:24.041Z,2.10
2024-05-09T11:06:14.440Z,2.38
2024-05-09T11:09:03.858Z,2.13
2024-05-09T11:11:53.364Z,3.75
2024-05-09T11:14:40.023Z,3.13
2024-05-09T11:17:29.205Z,3.75
2024-05-09T11:20:22.929Z,3.15
2024-05-09T11:23:18.414Z,2.90
2024-05-09T11:26:08.059Z,3.10
2024-05-09T11:28:58.131Z,3.78
2024-05-09T11:31:47.692Z,3.50
2024-05-09T11:34:37.210Z,3.33
2024-05-09T11:37:23.654Z,2.35
2024-05-09T11:40:21.134Z,3.20
2024-05-09T11:43:14.617Z,2.97
2024-05-09T11:46:04.417Z,4.45
2024-05-09T11:48:51.520Z,3.15
2024-05-09T11:51:40.591Z,2.92
2024-05-09T11:54:27.019Z,3.22
2024-05-09T11:57:16.878Z,2.72
2024-05-09T12:00:07.383Z,2.85
2024-05-09T12:02:58.999Z,2.50
2024-05-09T12:05:48.064Z,2.72
2024-05-09T12:08:35.126Z,2.47
2024-05-09T12:11:24.911Z,2.38
2024-05-09T12:14:14.329Z,2.42
2024-05-09T12:17:04.114Z,2.28
2024-05-09T12:19:53.509Z,2.60
2024-05-09T12:22:39.912Z,2.17
2024-05-09T12:25:29.125Z,2.08
2024-05-09T12:28:17.738Z,2.58
2024-05-09T12:31:07.584Z,2.10
2024-05-09T12:33:56.875Z,2.50
2024-05-09T12:36:46.513Z,3.13
2024-05-09T12:39:33.166Z,3.30
2024-05-09T12:42:27.352Z,2.53
2024-05-09T12:45:15.418Z,2.35
2024-05-09T12:48:07.437Z,3.20
2024-05-09T12:50:57.856Z,2.30
2024-05-09T12:53:47.396Z,3.20
2024-05-09T12:56:33.899Z,3.50
2024-05-09T12:59:22.956Z,2.70
2024-05-09T13:02:09.750Z,3.33
2024-05-09T13:04:59.506Z,2.92
2024-05-09T13:07:49.136Z,3.33
2024-05-09T13:10:38.586Z,2.88
2024-05-09T13:13:25.261Z,2.83
2024-05-09T13:16:14.536Z,2.85
2024-05-09T13:19:03.804Z,2.60
2024-05-09T13:21:50.299Z,2.80
2024-05-09T13:24:42.527Z,2.60
2024-05-09T13:27:29.160Z,2.40
2024-05-09T13:30:26.313Z,2.47
2024-05-09T13:33:23.500Z,2.55
2024-05-09T13:36:10.462Z,2.53
2024-05-09T13:38:59.571Z,3.20
2024-05-09T13:41:51.393Z,3.58
2024-05-09T13:44:37.915Z,3.25
2024-05-09T13:47:27.281Z,3.42
2024-05-09T13:50:20.569Z,3.20
2024-05-09T13:53:17.407Z,2.92
2024-05-09T13:56:03.922Z,3.25
2024-05-09T13:58:55.802Z,2.58
2024-05-09T14:01:45.300Z,3.05
2024-05-09T14:04:32.483Z,3.00
2024-05-09T14:07:21.781Z,3.22
2024-05-09T14:10:15.851Z,3.08
2024-05-09T14:13:09.292Z,2.92
2024-05-09T14:15:58.925Z,3.28
2024-05-09T14:18:48.038Z,3.35
2024-05-09T14:21:37.218Z,3.10
2024-05-09T14:24:23.580Z,3.17
2024-05-09T14:27:12.459Z,3.13
2024-05-09T14:29:58.796Z,3.40
2024-05-09T14:32:50.562Z,2.97
2024-05-09T14:35:38.444Z,3.78
2024-05-09T14:38:28.193Z,3.20
2024-05-09T14:41:14.945Z,4.10
2024-05-09T14:44:03.989Z,2.90
2024-05-09T14:46:50.721Z,3.50
2024-05-09T14:49:42.920Z,3.63
2024-05-09T14:52:29.823Z,3.83
2024-05-09T14:55:19.040Z,3.90
2024-05-09T14:58:07.325Z,3.67
2024-05-09T15:00:57.521Z,3.08
2024-05-09T15:03:44.980Z,3.45
2024-05-09T15:06:38.321Z,4.85
2024-05-09T15:09:30.183Z,3.92
2024-05-09T15:12:20.928Z,4.05
2024-05-09T15:15:08.449Z,4.13
2024-05-09T15:17:58.257Z,3.63
2024-05-09T15:20:45.200Z,3.63
2024-05-09T15:23:37.699Z,3.50
2024-05-09T15:26:24.237Z,5.40
2024-05-09T15:29:13.964Z,4.55
2024-05-09T15:32:00.808Z,3.85
2024-05-09T15:34:50.272Z,4.65
2024-05-09T15:37:37.001Z,3.45
2024-05-09T15:40:37.828Z,3.13
2024-05-09T15:43:30.461Z,2.72
2024-05-09T15:46:19.981Z,3.08
2024-05-09T15:49:07.023Z,2.75
2024-05-09T15:51:56.554Z,3.40
2024-05-09T15:54:46.436Z,3.17
2024-05-09T15:57:38.405Z,4.45
2024-05-09T16:00:36.476Z,2.90
2024-05-09T16:03:29.648Z,2.88
2024-05-09T16:06:16.596Z,1.85
2024-05-09T16:09:06.504Z,1.48
2024-05-09T16:11:59.590Z,1.75
2024-05-09T16:14:50.780Z,1.70
2024-05-09T16:17:40.808Z,1.50
2024-05-09T16:20:37.315Z,2.33
2024-05-09T16:23:30.036Z,2.60
2024-05-09T16:26:22.154Z,1.60
2024-05-09T16:29:11.742Z,1.80
2024-05-09T16:32:00.695Z,2.40
2024-05-09T16:34:49.754Z,1.52
2024-05-09T16:37:36.353Z,1.65
2024-05-09T16:40:34.418Z,1.90
2024-05-09T16:43:25.448Z,2.30
2024-05-09T16:46:14.803Z,2.50
2024-05-09T16:49:04.269Z,2.40
2024-05-09T16:51:53.951Z,2.17
2024-05-09T16:54:40.474Z,2.40
2024-05-09T16:57:29.612Z,2.10
2024-05-09T17:00:25.241Z,3.15
2024-05-09T17:03:21.235Z,3.10
2024-05-09T17:06:11.039Z,2.20
2024-05-09T17:09:08.134Z,2.58
2024-05-09T17:12:00.353Z,2.30
2024-05-09T17:14:49.210Z,2.22
2024-05-09T17:17:38.625Z,2.50
2024-05-09T17:20:33.244Z,2.67
2024-05-09T17:23:25.392Z,1.90
2024-05-09T17:26:14.940Z,2.40
2024-05-09T17:29:01.888Z,2.47
2024-05-09T17:31:51.224Z,2.63
2024-05-09T17:34:37.804Z,2.88
2024-05-09T17:37:27.744Z,2.20
2024-05-09T17:40:27.907Z,3.47
2024-05-09T17:43:19.792Z,2.00
2024-05-09T17:46:09.769Z,2.33
2024-05-09T17:48:58.824Z,2.33
2024-05-09T17:51:56.027Z,1.83
2024-05-09T17:54:45.111Z,2.08
2024-05-09T17:57:34.245Z,2.30
2024-05-09T18:00:33.385Z,2.20
2024-05-09T18:03:28.187Z,1.90
2024-05-09T18:06:17.558Z,2.13
2024-05-09T18:09:04.314Z,2.05
2024-05-09T18:11:53.511Z,2.05
2024-05-09T18:14:42.686Z,1.90
2024-05-09T18:17:31.897Z,2.00
2024-05-09T18:20:28.594Z,1.65
2024-05-09T18:23:26.558Z,1.80
2024-05-09T18:26:15.576Z,1.98
2024-05-09T18:29:02.353Z,1.70
2024-05-09T18:31:54.146Z,1.88
2024-05-09T18:34:40.640Z,2.00
2024-05-09T18:37:30.400Z,2.15
2024-05-09T18:40:24.820Z,1.88
2024-05-09T18:43:26.242Z,2.00
2024-05-09T18:46:20.980Z,1.90
2024-05-09T18:49:10.023Z,2.88
2024-05-09T18:51:59.586Z,2.28
2024-05-09T18:54:46.537Z,2.53
2024-05-09T18:57:35.851Z,1.77
2024-05-09T19:00:32.989Z,1.35
2024-05-09T19:03:25.820Z,0.93
2024-05-09T19:06:15.197Z,1.20
2024-05-09T19:09:05.140Z,1.48
2024-05-09T19:11:54.263Z,2.30
2024-05-09T19:14:43.021Z,1.83
2024-05-09T19:17:32.916Z,1.02
2024-05-09T19:20:25.481Z,1.20
2024-05-09T19:23:23.933Z,0.93
2024-05-09T19:26:10.293Z,1.17
2024-05-09T19:31:45.583Z,1.02
2024-05-09T19:34:34.633Z,0.90
2024-05-09T19:37:24.090Z,1.25
2024-05-09T19:40:21.089Z,1.48
2024-05-09T19:43:18.095Z,1.05
2024-05-09T19:46:04.954Z,1.48
2024-05-09T19:48:54.276Z,1.85
2024-05-09T19:51:42.088Z,1.40
2024-05-09T19:54:31.432Z,1.65
2024-05-09T19:57:20.977Z,1.00
2024-05-09T20:00:17.717Z,1.63
2024-05-09T20:03:08.953Z,1.40
2024-05-09T20:05:58.255Z,1.67
2024-05-09T20:08:44.749Z,2.08
2024-05-09T20:14:23.180Z,1.63
2024-05-09T20:17:12.880Z,2.08
2024-05-09T20:20:01.792Z,2.05
2024-05-09T20:22:48.001Z,2.08
2024-05-09T20:28:23.357Z,2.25
2024-05-09T20:34:08.461Z,2.08
2024-05-09T20:39:43.642Z,2.92
2024-05-09T20:42:35.950Z,2.42
2024-05-09T20:45:22.254Z,2.50
2024-05-09T20:48:14.367Z,2.58
2024-05-09T20:51:00.622Z,3.20
2024-05-09T20:53:50.404Z,2.88
2024-05-09T20:56:36.523Z,3.35
2024-05-09T21:02:11.668Z,2.72
2024-05-09T21:05:03.313Z,2.83
2024-05-09T21:07:49.575Z,2.88
2024-05-09T21:10:39.204Z,2.55
2024-05-09T21:13:28.748Z,2.05
2024-05-09T21:16:15.105Z,2.65
2024-05-09T21:19:04.255Z,2.58
2024-05-09T21:21:53.553Z,3.08
2024-05-09T21:24:42.541Z,2.72
2024-05-09T21:27:33.655Z,2.97
2024-05-09T21:30:31.450Z,2.55
2024-05-09T21:33:29.179Z,3.17
2024-05-09T21:36:15.377Z,2.47
2024-05-09T21:41:53.624Z,2.35
2024-05-09T21:44:42.611Z,3.42
2024-05-09T21:47:29.392Z,2.58
2024-05-09T21:50:23.254Z,2.95
2024-05-09T21:53:18.453Z,3.47
2024-05-09T21:56:08.893Z,3.58
2024-05-09T21:58:57.997Z,2.80
2024-05-09T22:01:44.273Z,2.70
2024-05-09T22:07:19.925Z,3.13
2024-05-09T22:10:22.663Z,2.47
2024-05-09T22:13:16.939Z,3.67
2024-05-09T22:16:12.135Z,3.45
2024-05-09T22:18:58.383Z,2.92
2024-05-09T22:21:47.491Z,3.03
2024-05-09T22:24:34.413Z,2.65
2024-05-09T22:30:20.924Z,2.63
2024-05-09T22:33:13.796Z,3.65
2024-05-09T22:36:03.258Z,3.10
2024-05-09T22:38:49.597Z,2.60
2024-05-09T22:41:38.573Z,2.95
2024-05-09T22:44:25.295Z,3.08
2024-05-09T22:47:17.204Z,2.72
2024-05-09T22:50:04.433Z,2.78
2024-05-09T22:52:56.460Z,2.88
2024-05-09T22:55:42.745Z,2.63
2024-05-09T22:58:31.832Z,3.92
2024-05-09T23:01:18.976Z,3.03
2024-05-09T23:04:11.155Z,3.17
2024-05-09T23:06:57.805Z,2.90
2024-05-09T23:12:34.003Z,3.00
2024-05-09T23:15:23.203Z,3.05
2024-05-09T23:18:09.759Z,4.00
2024-05-09T23:21:02.921Z,3.65
2024-05-09T23:23:49.215Z,3.38
2024-05-09T23:26:38.329Z,3.13
2024-05-09T23:29:24.752Z,2.90
2024-05-09T23:32:13.754Z,3.08
2024-05-09T23:35:00.520Z,3.70
2024-05-09T23:37:52.364Z,3.58
2024-05-09T23:40:42.527Z,3.85
2024-05-09T23:43:29.313Z,4.38
2024-05-09T23:49:04.393Z,4.18
2024-05-09T23:54:42.367Z,4.43
2024-05-09T23:57:31.803Z,3.42
